sensor_id;sensor_type;location;lat;lon;timestamp;P1;durP1;ratioP1;P2;durP2;ratioP2
18316;SDS011;9284;52.298;21.164;2022-10-16T03:18:07;32.10;;;17.48;;
18316;SDS011;9284;52.298;21.164;2022-10-16T03:20:36;30.65;;;17.85;;
18316;SDS011;9284;52.298;21.164;2022-10-16T03:23:04;30.85;;;17.70;;
18316;SDS011;9284;52.298;21.164;2022-10-16T03:25:34;29.40;;;17.10;;
18316;SDS011;9284;52.298;21.164;2022-10-16T03:28:03;31.38;;;17.55;;
18316;SDS011;9284;52.298;21.164;2022-10-16T03:30:31;33.42;;;16.95;;
18316;SDS011;9284;52.298;21.164;2022-10-16T03:32:59;28.08;;;16.73;;
18316;SDS011;9284;52.298;21.164;2022-10-16T03:35:29;32.13;;;18.33;;
18316;SDS011;9284;52.298;21.164;2022-10-16T03:37:57;28.42;;;17.15;;
18316;SDS011;9284;52.298;21.164;2022-10-16T03:40:25;30.30;;;17.20;;
18316;SDS011;9284;52.298;21.164;2022-10-16T03:42:54;29.75;;;17.30;;
18316;SDS011;9284;52.298;21.164;2022-10-16T03:45:23;28.45;;;16.35;;
18316;SDS011;9284;52.298;21.164;2022-10-16T03:47:55;31.25;;;16.95;;
18316;SDS011;9284;52.298;21.164;2022-10-16T03:50:23;31.85;;;18.15;;
18316;SDS011;9284;52.298;21.164;2022-10-16T03:52:53;32.70;;;16.50;;
18316;SDS011;9284;52.298;21.164;2022-10-16T03:55:21;29.90;;;17.23;;
18316;SDS011;9284;52.298;21.164;2022-10-16T03:57:50;28.88;;;16.83;;
18316;SDS011;9284;52.298;21.164;2022-10-16T04:00:18;25.75;;;16.10;;
18316;SDS011;9284;52.298;21.164;2022-10-16T04:02:46;27.45;;;15.10;;
18316;SDS011;9284;52.298;21.164;2022-10-16T04:05:15;30.13;;;16.10;;
18316;SDS011;9284;52.298;21.164;2022-10-16T04:07:43;25.88;;;15.73;;
18316;SDS011;9284;52.298;21.164;2022-10-16T04:10:13;27.73;;;15.52;;
18316;SDS011;9284;52.298;21.164;2022-10-16T04:12:41;29.13;;;16.05;;
18316;SDS011;9284;52.298;21.164;2022-10-16T04:15:09;27.17;;;15.88;;
18316;SDS011;9284;52.298;21.164;2022-10-16T04:17:38;27.10;;;15.70;;
18316;SDS011;9284;52.298;21.164;2022-10-16T04:20:06;26.63;;;16.25;;
18316;SDS011;9284;52.298;21.164;2022-10-16T04:22:35;26.00;;;15.73;;
18316;SDS011;9284;52.298;21.164;2022-10-16T04:25:04;30.42;;;15.13;;
18316;SDS011;9284;52.298;21.164;2022-10-16T04:27:34;24.52;;;15.55;;
18316;SDS011;9284;52.298;21.164;2022-10-16T04:30:03;26.70;;;15.75;;
18316;SDS011;9284;52.298;21.164;2022-10-16T04:32:32;30.75;;;15.77;;
18316;SDS011;9284;52.298;21.164;2022-10-16T04:35:00;28.48;;;15.75;;
18316;SDS011;9284;52.298;21.164;2022-10-16T04:37:29;27.65;;;15.02;;
18316;SDS011;9284;52.298;21.164;2022-10-16T04:39:57;26.02;;;15.45;;
18316;SDS011;9284;52.298;21.164;2022-10-16T04:42:25;26.95;;;15.38;;
18316;SDS011;9284;52.298;21.164;2022-10-16T04:44:55;26.77;;;15.98;;
18316;SDS011;9284;52.298;21.164;2022-10-16T04:47:23;24.90;;;14.82;;
18316;SDS011;9284;52.298;21.164;2022-10-16T04:49:52;26.20;;;15.70;;
18316;SDS011;9284;52.298;21.164;2022-10-16T04:52:20;25.88;;;16.00;;
18316;SDS011;9284;52.298;21.164;2022-10-16T04:54:51;26.92;;;15.80;;
18316;SDS011;9284;52.298;21.164;2022-10-16T04:57:20;26.05;;;15.25;;
18316;SDS011;9284;52.298;21.164;2022-10-16T04:59:48;28.73;;;16.70;;
18316;SDS011;9284;52.298;21.164;2022-10-16T05:02:18;29.75;;;16.42;;
18316;SDS011;9284;52.298;21.164;2022-10-16T05:04:47;25.50;;;15.82;;
18316;SDS011;9284;52.298;21.164;2022-10-16T05:07:15;31.08;;;17.50;;
18316;SDS011;9284;52.298;21.164;2022-10-16T05:09:43;29.88;;;15.57;;
18316;SDS011;9284;52.298;21.164;2022-10-16T05:12:11;29.17;;;17.45;;
18316;SDS011;9284;52.298;21.164;2022-10-16T05:14:40;27.80;;;16.85;;
18316;SDS011;9284;52.298;21.164;2022-10-16T05:17:08;29.02;;;17.00;;
18316;SDS011;9284;52.298;21.164;2022-10-16T05:19:38;27.15;;;15.77;;
18316;SDS011;9284;52.298;21.164;2022-10-16T05:22:06;34.85;;;16.98;;
18316;SDS011;9284;52.298;21.164;2022-10-16T05:24:35;26.98;;;16.48;;
18316;SDS011;9284;52.298;21.164;2022-10-16T05:27:03;27.65;;;15.90;;
18316;SDS011;9284;52.298;21.164;2022-10-16T05:29:31;27.90;;;15.90;;
18316;SDS011;9284;52.298;21.164;2022-10-16T05:31:59;25.75;;;15.88;;
18316;SDS011;9284;52.298;21.164;2022-10-16T05:34:28;30.20;;;16.38;;
18316;SDS011;9284;52.298;21.164;2022-10-16T05:36:57;25.83;;;14.48;;
18316;SDS011;9284;52.298;21.164;2022-10-16T05:39:26;27.08;;;15.38;;
18316;SDS011;9284;52.298;21.164;2022-10-16T05:41:54;25.88;;;14.50;;
18316;SDS011;9284;52.298;21.164;2022-10-16T05:44:22;25.17;;;14.23;;
18316;SDS011;9284;52.298;21.164;2022-10-16T05:46:50;22.75;;;14.07;;
18316;SDS011;9284;52.298;21.164;2022-10-16T05:49:19;23.80;;;15.23;;
18316;SDS011;9284;52.298;21.164;2022-10-16T05:51:47;23.65;;;13.98;;
18316;SDS011;9284;52.298;21.164;2022-10-16T05:54:17;22.45;;;13.73;;
18316;SDS011;9284;52.298;21.164;2022-10-16T05:56:45;23.58;;;14.40;;
18316;SDS011;9284;52.298;21.164;2022-10-16T05:59:13;23.70;;;14.20;;
18316;SDS011;9284;52.298;21.164;2022-10-16T06:01:42;25.35;;;13.95;;
18316;SDS011;9284;52.298;21.164;2022-10-16T06:04:10;23.08;;;14.77;;
18316;SDS011;9284;52.298;21.164;2022-10-16T06:06:38;23.55;;;14.13;;
18316;SDS011;9284;52.298;21.164;2022-10-16T06:09:06;24.05;;;13.98;;
18316;SDS011;9284;52.298;21.164;2022-10-16T06:11:36;24.90;;;14.65;;
18316;SDS011;9284;52.298;21.164;2022-10-16T06:14:04;24.30;;;13.75;;
18316;SDS011;9284;52.298;21.164;2022-10-16T06:16:34;22.10;;;13.40;;
18316;SDS011;9284;52.298;21.164;2022-10-16T06:19:03;26.02;;;13.63;;
18316;SDS011;9284;52.298;21.164;2022-10-16T06:21:33;25.95;;;13.98;;
18316;SDS011;9284;52.298;21.164;2022-10-16T06:24:01;23.50;;;13.68;;
18316;SDS011;9284;52.298;21.164;2022-10-16T06:26:30;22.95;;;13.75;;
18316;SDS011;9284;52.298;21.164;2022-10-16T06:29:00;20.08;;;13.05;;
18316;SDS011;9284;52.298;21.164;2022-10-16T06:31:29;26.85;;;13.77;;
18316;SDS011;9284;52.298;21.164;2022-10-16T06:34:00;21.85;;;13.90;;
18316;SDS011;9284;52.298;21.164;2022-10-16T06:36:29;22.17;;;13.23;;
18316;SDS011;9284;52.298;21.164;2022-10-16T06:38:57;21.13;;;12.30;;
18316;SDS011;9284;52.298;21.164;2022-10-16T06:41:26;18.42;;;11.45;;
18316;SDS011;9284;52.298;21.164;2022-10-16T06:43:55;19.83;;;11.85;;
18316;SDS011;9284;52.298;21.164;2022-10-16T06:46:26;13.63;;;9.82;;
18316;SDS011;9284;52.298;21.164;2022-10-16T06:48:54;16.80;;;10.00;;
18316;SDS011;9284;52.298;21.164;2022-10-16T06:51:23;14.57;;;9.70;;
18316;SDS011;9284;52.298;21.164;2022-10-16T06:53:52;18.08;;;10.18;;
18316;SDS011;9284;52.298;21.164;2022-10-16T06:56:30;16.00;;;10.18;;
18316;SDS011;9284;52.298;21.164;2022-10-16T06:59:00;16.20;;;9.93;;
18316;SDS011;9284;52.298;21.164;2022-10-16T07:01:30;17.23;;;10.70;;
18316;SDS011;9284;52.298;21.164;2022-10-16T07:03:59;17.33;;;10.45;;
18316;SDS011;9284;52.298;21.164;2022-10-16T07:06:30;17.83;;;10.10;;
18316;SDS011;9284;52.298;21.164;2022-10-16T07:09:01;17.02;;;10.07;;
18316;SDS011;9284;52.298;21.164;2022-10-16T07:11:32;19.52;;;10.50;;
18316;SDS011;9284;52.298;21.164;2022-10-16T07:14:01;18.58;;;10.32;;
18316;SDS011;9284;52.298;21.164;2022-10-16T07:16:31;17.15;;;9.82;;
18316;SDS011;9284;52.298;21.164;2022-10-16T07:19:01;16.40;;;10.23;;
18316;SDS011;9284;52.298;21.164;2022-10-16T07:21:30;15.30;;;10.18;;
18316;SDS011;9284;52.298;21.164;2022-10-16T07:24:02;13.70;;;9.15;;
18316;SDS011;9284;52.298;21.164;2022-10-16T07:26:33;14.93;;;10.30;;
18316;SDS011;9284;52.298;21.164;2022-10-16T07:29:06;14.45;;;10.73;;
18316;SDS011;9284;52.298;21.164;2022-10-16T07:31:38;19.05;;;10.48;;
18316;SDS011;9284;52.298;21.164;2022-10-16T07:34:06;21.00;;;10.30;;
18316;SDS011;9284;52.298;21.164;2022-10-16T07:36:38;20.50;;;11.48;;
18316;SDS011;9284;52.298;21.164;2022-10-16T07:39:08;19.55;;;11.02;;
18316;SDS011;9284;52.298;21.164;2022-10-16T07:41:36;17.92;;;11.43;;
18316;SDS011;9284;52.298;21.164;2022-10-16T07:44:04;22.00;;;10.70;;
18316;SDS011;9284;52.298;21.164;2022-10-16T07:46:33;16.50;;;11.32;;
18316;SDS011;9284;52.298;21.164;2022-10-16T07:49:04;16.50;;;10.40;;
18316;SDS011;9284;52.298;21.164;2022-10-16T07:51:32;18.80;;;10.88;;
18316;SDS011;9284;52.298;21.164;2022-10-16T07:54:00;20.83;;;10.95;;
18316;SDS011;9284;52.298;21.164;2022-10-16T07:56:30;16.33;;;11.20;;
18316;SDS011;9284;52.298;21.164;2022-10-16T07:58:59;17.27;;;10.57;;
18316;SDS011;9284;52.298;21.164;2022-10-16T08:01:27;20.23;;;10.75;;
18316;SDS011;9284;52.298;21.164;2022-10-16T08:03:55;17.13;;;10.88;;
18316;SDS011;9284;52.298;21.164;2022-10-16T08:06:25;16.70;;;10.57;;
18316;SDS011;9284;52.298;21.164;2022-10-16T08:08:54;16.88;;;10.57;;
18316;SDS011;9284;52.298;21.164;2022-10-16T08:11:23;16.98;;;10.38;;
18316;SDS011;9284;52.298;21.164;2022-10-16T08:13:51;18.35;;;10.25;;
18316;SDS011;9284;52.298;21.164;2022-10-16T08:16:20;18.35;;;10.70;;
18316;SDS011;9284;52.298;21.164;2022-10-16T08:18:49;15.73;;;10.15;;
18316;SDS011;9284;52.298;21.164;2022-10-16T08:21:18;16.42;;;9.95;;
18316;SDS011;9284;52.298;21.164;2022-10-16T08:23:49;16.95;;;10.50;;
18316;SDS011;9284;52.298;21.164;2022-10-16T08:26:24;14.70;;;9.93;;
18316;SDS011;9284;52.298;21.164;2022-10-16T08:28:54;15.02;;;10.05;;
18316;SDS011;9284;52.298;21.164;2022-10-16T08:31:23;18.02;;;10.52;;
18316;SDS011;9284;52.298;21.164;2022-10-16T08:33:52;16.63;;;10.73;;
18316;SDS011;9284;52.298;21.164;2022-10-16T08:36:21;17.77;;;10.18;;
18316;SDS011;9284;52.298;21.164;2022-10-16T08:38:51;16.45;;;9.75;;
18316;SDS011;9284;52.298;21.164;2022-10-16T08:41:23;15.85;;;9.70;;
18316;SDS011;9284;52.298;21.164;2022-10-16T08:44:21;14.80;;;8.95;;
18316;SDS011;9284;52.298;21.164;2022-10-16T08:47:00;16.30;;;10.10;;
18316;SDS011;9284;52.298;21.164;2022-10-16T08:49:35;17.58;;;10.48;;
18316;SDS011;9284;52.298;21.164;2022-10-16T08:52:07;18.92;;;9.80;;
18316;SDS011;9284;52.298;21.164;2022-10-16T08:54:42;13.55;;;9.57;;
18316;SDS011;9284;52.298;21.164;2022-10-16T08:57:14;14.23;;;10.00;;
18316;SDS011;9284;52.298;21.164;2022-10-16T08:59:50;15.48;;;10.02;;
18316;SDS011;9284;52.298;21.164;2022-10-16T09:02:22;14.88;;;9.38;;
18316;SDS011;9284;52.298;21.164;2022-10-16T09:05:16;14.45;;;9.32;;
18316;SDS011;9284;52.298;21.164;2022-10-16T09:07:54;14.05;;;9.18;;
18316;SDS011;9284;52.298;21.164;2022-10-16T09:10:37;14.38;;;8.32;;
18316;SDS011;9284;52.298;21.164;2022-10-16T09:13:14;13.38;;;8.75;;
18316;SDS011;9284;52.298;21.164;2022-10-16T09:15:49;14.18;;;9.55;;
18316;SDS011;9284;52.298;21.164;2022-10-16T09:18:23;14.55;;;9.52;;
18316;SDS011;9284;52.298;21.164;2022-10-16T09:20:59;17.00;;;9.05;;
18316;SDS011;9284;52.298;21.164;2022-10-16T09:23:34;14.85;;;9.77;;
18316;SDS011;9284;52.298;21.164;2022-10-16T09:26:05;12.23;;;9.10;;
18316;SDS011;9284;52.298;21.164;2022-10-16T09:28:39;16.05;;;9.55;;
18316;SDS011;9284;52.298;21.164;2022-10-16T09:31:10;14.80;;;9.63;;
18316;SDS011;9284;52.298;21.164;2022-10-16T09:33:45;15.50;;;9.02;;
18316;SDS011;9284;52.298;21.164;2022-10-16T09:36:17;13.98;;;9.05;;
18316;SDS011;9284;52.298;21.164;2022-10-16T09:38:50;16.92;;;9.27;;
18316;SDS011;9284;52.298;21.164;2022-10-16T09:41:33;17.35;;;9.07;;
18316;SDS011;9284;52.298;21.164;2022-10-16T09:44:03;15.43;;;9.00;;
18316;SDS011;9284;52.298;21.164;2022-10-16T09:46:35;14.85;;;8.82;;
18316;SDS011;9284;52.298;21.164;2022-10-16T09:49:04;15.65;;;8.15;;
18316;SDS011;9284;52.298;21.164;2022-10-16T09:51:47;14.73;;;9.18;;
18316;SDS011;9284;52.298;21.164;2022-10-16T09:54:16;13.98;;;8.38;;
18316;SDS011;9284;52.298;21.164;2022-10-16T09:56:47;16.20;;;9.07;;
18316;SDS011;9284;52.298;21.164;2022-10-16T09:59:19;14.00;;;8.63;;
18316;SDS011;9284;52.298;21.164;2022-10-16T10:01:51;15.60;;;8.65;;
18316;SDS011;9284;52.298;21.164;2022-10-16T10:04:21;17.35;;;8.52;;
18316;SDS011;9284;52.298;21.164;2022-10-16T10:06:52;13.52;;;8.95;;
18316;SDS011;9284;52.298;21.164;2022-10-16T10:09:22;16.50;;;8.98;;
18316;SDS011;9284;52.298;21.164;2022-10-16T10:11:54;17.85;;;9.35;;
18316;SDS011;9284;52.298;21.164;2022-10-16T10:14:25;12.13;;;8.60;;
18316;SDS011;9284;52.298;21.164;2022-10-16T10:19:47;14.55;;;8.23;;
18316;SDS011;9284;52.298;21.164;2022-10-16T10:22:25;16.40;;;8.85;;
18316;SDS011;9284;52.298;21.164;2022-10-16T10:24:57;14.30;;;8.65;;
18316;SDS011;9284;52.298;21.164;2022-10-16T10:27:47;13.93;;;8.20;;
18316;SDS011;9284;52.298;21.164;2022-10-16T10:30:28;13.65;;;8.07;;
18316;SDS011;9284;52.298;21.164;2022-10-16T10:33:09;14.65;;;8.63;;
18316;SDS011;9284;52.298;21.164;2022-10-16T10:35:48;13.23;;;8.20;;
18316;SDS011;9284;52.298;21.164;2022-10-16T10:38:29;14.30;;;8.85;;
18316;SDS011;9284;52.298;21.164;2022-10-16T10:41:17;12.80;;;8.57;;
18316;SDS011;9284;52.298;21.164;2022-10-16T10:44:01;13.63;;;7.70;;
18316;SDS011;9284;52.298;21.164;2022-10-16T10:46:36;14.10;;;8.48;;
18316;SDS011;9284;52.298;21.164;2022-10-16T10:49:17;16.17;;;8.40;;
18316;SDS011;9284;52.298;21.164;2022-10-16T10:51:58;12.88;;;7.65;;
18316;SDS011;9284;52.298;21.164;2022-10-16T10:54:34;15.57;;;9.05;;
18316;SDS011;9284;52.298;21.164;2022-10-16T10:57:10;14.32;;;8.80;;
18316;SDS011;9284;52.298;21.164;2022-10-16T10:59:52;14.73;;;8.13;;
18316;SDS011;9284;52.298;21.164;2022-10-16T11:02:31;15.55;;;8.43;;
18316;SDS011;9284;52.298;21.164;2022-10-16T11:08:06;13.93;;;8.10;;
18316;SDS011;9284;52.298;21.164;2022-10-16T11:10:42;13.70;;;8.55;;
18316;SDS011;9284;52.298;21.164;2022-10-16T11:13:20;12.55;;;8.05;;
18316;SDS011;9284;52.298;21.164;2022-10-16T11:15:58;12.75;;;8.15;;
18316;SDS011;9284;52.298;21.164;2022-10-16T11:18:30;14.40;;;7.95;;
18316;SDS011;9284;52.298;21.164;2022-10-16T11:21:07;13.88;;;8.10;;
18316;SDS011;9284;52.298;21.164;2022-10-16T11:23:38;12.70;;;7.85;;
18316;SDS011;9284;52.298;21.164;2022-10-16T11:26:11;12.65;;;8.25;;
18316;SDS011;9284;52.298;21.164;2022-10-16T11:28:45;12.88;;;8.43;;
18316;SDS011;9284;52.298;21.164;2022-10-16T11:31:19;13.57;;;7.50;;
18316;SDS011;9284;52.298;21.164;2022-10-16T11:33:54;12.23;;;8.02;;
18316;SDS011;9284;52.298;21.164;2022-10-16T11:36:30;11.60;;;7.20;;
18316;SDS011;9284;52.298;21.164;2022-10-16T11:39:07;12.85;;;8.18;;
18316;SDS011;9284;52.298;21.164;2022-10-16T11:41:44;12.98;;;7.60;;
18316;SDS011;9284;52.298;21.164;2022-10-16T11:44:19;15.32;;;7.68;;
18316;SDS011;9284;52.298;21.164;2022-10-16T11:47:09;12.43;;;7.80;;
18316;SDS011;9284;52.298;21.164;2022-10-16T11:50:09;13.10;;;7.47;;
18316;SDS011;9284;52.298;21.164;2022-10-16T11:52:49;13.48;;;8.05;;
18316;SDS011;9284;52.298;21.164;2022-10-16T11:55:22;12.15;;;7.50;;
18316;SDS011;9284;52.298;21.164;2022-10-16T11:57:57;10.93;;;7.20;;
18316;SDS011;9284;52.298;21.164;2022-10-16T12:00:31;12.20;;;7.88;;
18316;SDS011;9284;52.298;21.164;2022-10-16T12:03:11;11.85;;;7.57;;
18316;SDS011;9284;52.298;21.164;2022-10-16T12:05:55;13.23;;;8.02;;
18316;SDS011;9284;52.298;21.164;2022-10-16T12:08:34;13.10;;;7.47;;
18316;SDS011;9284;52.298;21.164;2022-10-16T12:11:06;13.32;;;7.20;;
18316;SDS011;9284;52.298;21.164;2022-10-16T12:13:37;10.85;;;7.32;;
18316;SDS011;9284;52.298;21.164;2022-10-16T12:16:18;11.75;;;7.60;;
18316;SDS011;9284;52.298;21.164;2022-10-16T12:19:02;10.40;;;6.13;;
18316;SDS011;9284;52.298;21.164;2022-10-16T12:21:38;8.82;;;6.20;;
18316;SDS011;9284;52.298;21.164;2022-10-16T12:24:19;9.32;;;6.10;;
18316;SDS011;9284;52.298;21.164;2022-10-16T12:26:54;9.93;;;6.45;;
18316;SDS011;9284;52.298;21.164;2022-10-16T12:29:23;13.75;;;6.97;;
18316;SDS011;9284;52.298;21.164;2022-10-16T12:31:59;12.85;;;7.13;;
18316;SDS011;9284;52.298;21.164;2022-10-16T12:34:31;9.38;;;6.78;;
18316;SDS011;9284;52.298;21.164;2022-10-16T12:37:13;10.20;;;6.97;;
18316;SDS011;9284;52.298;21.164;2022-10-16T12:39:46;24.67;;;7.60;;
18316;SDS011;9284;52.298;21.164;2022-10-16T12:42:20;11.75;;;7.22;;
18316;SDS011;9284;52.298;21.164;2022-10-16T12:45:00;9.85;;;6.28;;
18316;SDS011;9284;52.298;21.164;2022-10-16T12:47:36;9.57;;;7.03;;
18316;SDS011;9284;52.298;21.164;2022-10-16T12:50:26;12.27;;;6.68;;
18316;SDS011;9284;52.298;21.164;2022-10-16T12:52:58;12.27;;;7.25;;
18316;SDS011;9284;52.298;21.164;2022-10-16T12:55:27;9.60;;;6.60;;
18316;SDS011;9284;52.298;21.164;2022-10-16T12:58:09;12.00;;;7.40;;
18316;SDS011;9284;52.298;21.164;2022-10-16T13:00:50;8.90;;;6.55;;
18316;SDS011;9284;52.298;21.164;2022-10-16T13:09:25;11.02;;;6.95;;
18316;SDS011;9284;52.298;21.164;2022-10-16T13:12:14;10.90;;;7.20;;
18316;SDS011;9284;52.298;21.164;2022-10-16T13:14:55;9.70;;;7.20;;
18316;SDS011;9284;52.298;21.164;2022-10-16T13:17:45;10.88;;;7.22;;
18316;SDS011;9284;52.298;21.164;2022-10-16T13:20:22;10.98;;;7.80;;
18316;SDS011;9284;52.298;21.164;2022-10-16T13:22:59;10.40;;;7.38;;
18316;SDS011;9284;52.298;21.164;2022-10-16T13:25:39;9.82;;;7.40;;
18316;SDS011;9284;52.298;21.164;2022-10-16T13:28:19;10.80;;;7.60;;
18316;SDS011;9284;52.298;21.164;2022-10-16T13:30:51;11.25;;;7.22;;
18316;SDS011;9284;52.298;21.164;2022-10-16T13:33:23;10.63;;;7.25;;
18316;SDS011;9284;52.298;21.164;2022-10-16T13:35:58;9.70;;;6.72;;
18316;SDS011;9284;52.298;21.164;2022-10-16T13:38:29;11.35;;;7.57;;
18316;SDS011;9284;52.298;21.164;2022-10-16T13:40:59;11.02;;;7.18;;
18316;SDS011;9284;52.298;21.164;2022-10-16T13:43:32;14.23;;;7.88;;
18316;SDS011;9284;52.298;21.164;2022-10-16T13:46:05;12.30;;;7.70;;
18316;SDS011;9284;52.298;21.164;2022-10-16T13:48:34;12.45;;;7.30;;
18316;SDS011;9284;52.298;21.164;2022-10-16T13:51:04;13.25;;;7.78;;
18316;SDS011;9284;52.298;21.164;2022-10-16T13:53:35;10.32;;;6.82;;
18316;SDS011;9284;52.298;21.164;2022-10-16T13:56:05;12.48;;;7.20;;
18316;SDS011;9284;52.298;21.164;2022-10-16T13:58:34;13.77;;;8.15;;
18316;SDS011;9284;52.298;21.164;2022-10-16T14:01:03;14.88;;;8.90;;
18316;SDS011;9284;52.298;21.164;2022-10-16T14:03:33;15.30;;;8.25;;
18316;SDS011;9284;52.298;21.164;2022-10-16T14:06:03;12.60;;;7.68;;
18316;SDS011;9284;52.298;21.164;2022-10-16T14:08:36;14.75;;;7.70;;
18316;SDS011;9284;52.298;21.164;2022-10-16T14:11:19;15.75;;;8.02;;
18316;SDS011;9284;52.298;21.164;2022-10-16T14:13:50;11.85;;;8.00;;
18316;SDS011;9284;52.298;21.164;2022-10-16T14:16:20;13.40;;;7.28;;
18316;SDS011;9284;52.298;21.164;2022-10-16T14:18:55;11.82;;;8.05;;
18316;SDS011;9284;52.298;21.164;2022-10-16T14:21:25;12.73;;;6.93;;
18316;SDS011;9284;52.298;21.164;2022-10-16T14:23:56;13.93;;;7.28;;
18316;SDS011;9284;52.298;21.164;2022-10-16T14:26:26;11.07;;;7.57;;
18316;SDS011;9284;52.298;21.164;2022-10-16T14:29:03;12.27;;;7.65;;
18316;SDS011;9284;52.298;21.164;2022-10-16T14:31:39;11.95;;;7.38;;
18316;SDS011;9284;52.298;21.164;2022-10-16T14:34:24;12.68;;;7.50;;
18316;SDS011;9284;52.298;21.164;2022-10-16T14:36:58;13.07;;;7.22;;
18316;SDS011;9284;52.298;21.164;2022-10-16T14:39:32;10.98;;;7.63;;
18316;SDS011;9284;52.298;21.164;2022-10-16T14:42:01;11.93;;;6.93;;
18316;SDS011;9284;52.298;21.164;2022-10-16T14:44:31;12.18;;;7.60;;
18316;SDS011;9284;52.298;21.164;2022-10-16T14:47:07;14.00;;;8.23;;
18316;SDS011;9284;52.298;21.164;2022-10-16T14:49:41;15.02;;;7.75;;
18316;SDS011;9284;52.298;21.164;2022-10-16T14:52:10;12.52;;;7.53;;
18316;SDS011;9284;52.298;21.164;2022-10-16T14:54:40;13.25;;;7.70;;
18316;SDS011;9284;52.298;21.164;2022-10-16T14:57:15;13.13;;;7.95;;
18316;SDS011;9284;52.298;21.164;2022-10-16T14:59:45;13.30;;;8.10;;
18316;SDS011;9284;52.298;21.164;2022-10-16T15:02:27;12.25;;;7.78;;
18316;SDS011;9284;52.298;21.164;2022-10-16T15:05:02;15.20;;;8.07;;
18316;SDS011;9284;52.298;21.164;2022-10-16T15:07:38;18.17;;;8.88;;
18316;SDS011;9284;52.298;21.164;2022-10-16T15:10:08;13.32;;;8.45;;
18316;SDS011;9284;52.298;21.164;2022-10-16T15:12:37;13.77;;;8.23;;
18316;SDS011;9284;52.298;21.164;2022-10-16T15:18:00;13.23;;;8.05;;
18316;SDS011;9284;52.298;21.164;2022-10-16T15:20:29;14.20;;;8.02;;
18316;SDS011;9284;52.298;21.164;2022-10-16T15:23:00;16.55;;;8.10;;
18316;SDS011;9284;52.298;21.164;2022-10-16T15:25:32;11.57;;;7.75;;
18316;SDS011;9284;52.298;21.164;2022-10-16T15:28:13;9.85;;;6.97;;
18316;SDS011;9284;52.298;21.164;2022-10-16T15:30:42;14.40;;;8.23;;
18316;SDS011;9284;52.298;21.164;2022-10-16T15:33:12;12.57;;;7.97;;
18316;SDS011;9284;52.298;21.164;2022-10-16T15:35:42;15.18;;;9.13;;
18316;SDS011;9284;52.298;21.164;2022-10-16T15:38:13;18.20;;;9.05;;
18316;SDS011;9284;52.298;21.164;2022-10-16T15:40:45;19.73;;;9.18;;
18316;SDS011;9284;52.298;21.164;2022-10-16T15:43:13;15.02;;;9.82;;
18316;SDS011;9284;52.298;21.164;2022-10-16T15:45:42;19.23;;;9.40;;
18316;SDS011;9284;52.298;21.164;2022-10-16T15:48:11;16.92;;;8.95;;
18316;SDS011;9284;52.298;21.164;2022-10-16T15:50:40;14.32;;;8.63;;
18316;SDS011;9284;52.298;21.164;2022-10-16T15:53:10;16.05;;;9.73;;
18316;SDS011;9284;52.298;21.164;2022-10-16T15:55:38;16.50;;;9.27;;
18316;SDS011;9284;52.298;21.164;2022-10-16T15:58:08;17.77;;;9.82;;
18316;SDS011;9284;52.298;21.164;2022-10-16T16:00:36;18.75;;;9.50;;
18316;SDS011;9284;52.298;21.164;2022-10-16T16:03:05;19.50;;;9.98;;
18316;SDS011;9284;52.298;21.164;2022-10-16T16:05:36;17.92;;;10.20;;
18316;SDS011;9284;52.298;21.164;2022-10-16T16:08:11;20.02;;;9.82;;
18316;SDS011;9284;52.298;21.164;2022-10-16T16:10:40;18.10;;;9.57;;
18316;SDS011;9284;52.298;21.164;2022-10-16T16:13:10;17.80;;;10.15;;
18316;SDS011;9284;52.298;21.164;2022-10-16T16:15:38;14.57;;;8.55;;
18316;SDS011;9284;52.298;21.164;2022-10-16T16:18:07;16.40;;;9.15;;
18316;SDS011;9284;52.298;21.164;2022-10-16T16:20:36;17.08;;;8.60;;
18316;SDS011;9284;52.298;21.164;2022-10-16T16:23:05;16.02;;;8.68;;
18316;SDS011;9284;52.298;21.164;2022-10-16T16:25:33;14.18;;;8.68;;
18316;SDS011;9284;52.298;21.164;2022-10-16T16:28:03;15.43;;;9.15;;
18316;SDS011;9284;52.298;21.164;2022-10-16T16:30:35;18.15;;;9.75;;
18316;SDS011;9284;52.298;21.164;2022-10-16T16:33:03;18.80;;;9.65;;
18316;SDS011;9284;52.298;21.164;2022-10-16T16:35:31;16.05;;;9.50;;
18316;SDS011;9284;52.298;21.164;2022-10-16T16:38:00;16.73;;;9.68;;
18316;SDS011;9284;52.298;21.164;2022-10-16T16:40:28;14.32;;;9.90;;
18316;SDS011;9284;52.298;21.164;2022-10-16T16:42:57;14.27;;;8.90;;
18316;SDS011;9284;52.298;21.164;2022-10-16T16:45:25;18.50;;;10.30;;
18316;SDS011;9284;52.298;21.164;2022-10-16T16:47:55;16.55;;;9.60;;
18316;SDS011;9284;52.298;21.164;2022-10-16T16:50:24;17.45;;;10.32;;
18316;SDS011;9284;52.298;21.164;2022-10-16T16:52:52;17.88;;;10.55;;
18316;SDS011;9284;52.298;21.164;2022-10-16T16:55:21;16.45;;;10.20;;
18316;SDS011;9284;52.298;21.164;2022-10-16T16:57:49;17.58;;;10.02;;
18316;SDS011;9284;52.298;21.164;2022-10-16T17:00:18;15.88;;;9.32;;
18316;SDS011;9284;52.298;21.164;2022-10-16T17:02:47;16.77;;;10.05;;
18316;SDS011;9284;52.298;21.164;2022-10-16T17:05:18;13.63;;;8.95;;
18316;SDS011;9284;52.298;21.164;2022-10-16T17:07:46;16.48;;;10.20;;
18316;SDS011;9284;52.298;21.164;2022-10-16T17:10:15;17.17;;;9.30;;
18316;SDS011;9284;52.298;21.164;2022-10-16T17:12:43;18.13;;;10.40;;
18316;SDS011;9284;52.298;21.164;2022-10-16T17:15:11;15.10;;;10.23;;
18316;SDS011;9284;52.298;21.164;2022-10-16T17:17:40;17.35;;;10.80;;
18316;SDS011;9284;52.298;21.164;2022-10-16T17:20:09;17.83;;;10.98;;
18316;SDS011;9284;52.298;21.164;2022-10-16T17:22:39;21.27;;;11.15;;
18316;SDS011;9284;52.298;21.164;2022-10-16T17:25:07;19.38;;;10.88;;
18316;SDS011;9284;52.298;21.164;2022-10-16T17:27:36;16.52;;;10.73;;
18316;SDS011;9284;52.298;21.164;2022-10-16T17:30:05;18.17;;;11.32;;
18316;SDS011;9284;52.298;21.164;2022-10-16T17:32:36;20.30;;;11.60;;
18316;SDS011;9284;52.298;21.164;2022-10-16T17:35:04;18.42;;;11.32;;
18316;SDS011;9284;52.298;21.164;2022-10-16T17:37:34;18.17;;;11.13;;
18316;SDS011;9284;52.298;21.164;2022-10-16T17:40:04;19.17;;;12.10;;
18316;SDS011;9284;52.298;21.164;2022-10-16T17:42:33;18.40;;;11.73;;
18316;SDS011;9284;52.298;21.164;2022-10-16T17:45:02;19.60;;;11.30;;
18316;SDS011;9284;52.298;21.164;2022-10-16T17:47:31;19.83;;;11.68;;
18316;SDS011;9284;52.298;21.164;2022-10-16T17:49:59;19.75;;;11.90;;
18316;SDS011;9284;52.298;21.164;2022-10-16T17:52:27;24.52;;;12.50;;
18316;SDS011;9284;52.298;21.164;2022-10-16T17:54:56;18.65;;;11.40;;
18316;SDS011;9284;52.298;21.164;2022-10-16T17:57:26;18.58;;;12.10;;
18316;SDS011;9284;52.298;21.164;2022-10-16T17:59:54;15.73;;;11.65;;
18316;SDS011;9284;52.298;21.164;2022-10-16T18:02:22;18.98;;;11.50;;
18316;SDS011;9284;52.298;21.164;2022-10-16T18:04:52;18.17;;;11.70;;
18316;SDS011;9284;52.298;21.164;2022-10-16T18:07:21;27.17;;;11.70;;
18316;SDS011;9284;52.298;21.164;2022-10-16T18:09:49;23.63;;;13.23;;
18316;SDS011;9284;52.298;21.164;2022-10-16T18:12:39;22.20;;;12.77;;
18316;SDS011;9284;52.298;21.164;2022-10-16T18:15:07;22.05;;;12.65;;
18316;SDS011;9284;52.298;21.164;2022-10-16T18:17:36;23.35;;;14.02;;
18316;SDS011;9284;52.298;21.164;2022-10-16T18:20:05;26.02;;;13.65;;
18316;SDS011;9284;52.298;21.164;2022-10-16T18:22:34;21.92;;;14.00;;
18316;SDS011;9284;52.298;21.164;2022-10-16T18:25:03;21.70;;;13.43;;
18316;SDS011;9284;52.298;21.164;2022-10-16T18:27:33;25.48;;;16.65;;